TimeEST,TemperatureF,Dew PointF,Humidity,Sea Level PressureIn,VisibilityMPH,Wind Direction,Wind SpeedMPH,Gust SpeedMPH,PrecipitationIn,Events,Conditions,WindDirDegrees,DateUTC
12:09 AM,28.4,24.8,86,29.92,7.0,East,6.9,-,N/A,,Overcast,90,2012-12-29 05:09:00
12:55 AM,28.0,24.1,85,29.93,7.0,East,6.9,-,N/A,,Overcast,90,2012-12-29 05:55:00
1:04 AM,28.4,24.8,86,29.90,7.0,East,6.9,-,N/A,,Overcast,90,2012-12-29 06:04:00
1:55 AM,28.0,24.1,85,29.91,7.0,East,6.9,-,N/A,,Overcast,90,2012-12-29 06:55:00
2:11 AM,28.4,24.8,86,29.89,7.0,East,6.9,-,N/A,,Overcast,90,2012-12-29 07:11:00
2:55 AM,28.0,23.0,81,29.91,7.0,East,6.9,-,N/A,,Overcast,90,2012-12-29 07:55:00
3:55 AM,27.0,23.0,85,29.91,6.0,East,5.8,-,N/A,,Overcast,90,2012-12-29 08:55:00
4:15 AM,28.4,23.0,80,29.87,6.0,East,6.9,-,N/A,,Haze,80,2012-12-29 09:15:00
4:44 AM,26.6,23.0,86,29.87,6.0,East,5.8,-,N/A,,Overcast,80,2012-12-29 09:44:00
4:55 AM,27.0,23.0,85,29.89,6.0,East,6.9,-,N/A,,Overcast,80,2012-12-29 09:55:00
5:55 AM,27.0,23.0,85,29.90,6.0,ENE,3.5,-,0.00,Snow,Light Snow,60,2012-12-29 10:55:00
6:55 AM,26.6,23.0,86,29.88,3.0,NNE,3.5,-,N/A,Snow,Light Snow,30,2012-12-29 11:55:00
7:02 AM,26.6,23.0,86,29.88,2.5,NE,5.8,-,0.00,Snow,Light Snow,40,2012-12-29 12:02:00
7:50 AM,26.6,21.2,80,29.88,4.0,NE,5.8,-,0.00,Snow,Light Snow,40,2012-12-29 12:50:00
7:55 AM,27.0,21.9,81,29.91,3.0,NNE,4.6,-,0.00,Snow,Light Snow,30,2012-12-29 12:55:00
8:26 AM,26.6,23.0,86,29.89,2.0,NNE,4.6,-,0.00,Snow,Light Snow,30,2012-12-29 13:26:00
8:33 AM,26.6,23.0,86,29.89,1.2,North,4.6,-,0.00,Snow,Light Snow,10,2012-12-29 13:33:00
8:55 AM,27.0,23.0,85,29.92,1.5,NNE,4.6,-,0.00,Snow,Light Snow,30,2012-12-29 13:55:00
9:55 AM,27.0,23.0,85,29.92,1.8,NNE,4.6,-,0.01,Snow,Light Snow,30,2012-12-29 14:55:00
10:38 AM,26.6,21.2,80,29.90,4.0,ENE,5.8,-,0.00,Snow,Light Snow,60,2012-12-29 15:38:00
10:55 AM,28.0,21.9,78,29.93,8.0,ENE,6.9,-,0.00,,Mostly Cloudy,70,2012-12-29 15:55:00
11:55 AM,30.9,23.0,72,29.92,10.0,Calm,Calm,-,N/A,,Mostly Cloudy,0,2012-12-29 16:55:00
12:14 PM,30.2,23.0,75,29.89,10.0,North,4.6,-,N/A,,Overcast,10,2012-12-29 17:14:00
12:55 PM,30.9,23.0,72,29.92,10.0,NNW,4.6,-,N/A,,Overcast,340,2012-12-29 17:55:00
1:19 PM,30.2,23.0,75,29.89,10.0,NNW,4.6,-,N/A,,Overcast,330,2012-12-29 18:19:00
1:26 PM,30.2,23.0,75,29.89,10.0,NNW,3.5,-,N/A,,Overcast,330,2012-12-29 18:26:00
1:48 PM,30.2,23.0,75,29.89,10.0,NNW,4.6,-,N/A,,Overcast,330,2012-12-29 18:48:00
1:55 PM,30.9,23.0,72,29.92,10.0,North,4.6,-,N/A,,Overcast,350,2012-12-29 18:55:00
2:55 PM,32.0,23.0,69,29.94,10.0,NNW,4.6,-,N/A,,Overcast,340,2012-12-29 19:55:00
3:55 PM,32.0,21.0,64,29.96,10.0,North,6.9,-,N/A,,Overcast,360,2012-12-29 20:55:00
4:55 PM,30.9,21.0,67,29.99,10.0,NNE,4.6,-,N/A,,Overcast,20,2012-12-29 21:55:00
5:55 PM,30.0,19.9,66,30.01,10.0,Calm,Calm,-,N/A,,Mostly Cloudy,0,2012-12-29 22:55:00
6:55 PM,26.1,21.0,81,30.03,10.0,Calm,Calm,-,N/A,,Overcast,0,2012-12-29 23:55:00
7:55 PM,25.0,21.0,85,30.04,10.0,Calm,Calm,-,N/A,,Overcast,0,2012-12-30 00:55:00
8:46 PM,26.6,21.2,80,30.03,2.5,Calm,Calm,-,0.00,Snow,Light Snow,0,2012-12-30 01:46:00
8:55 PM,26.1,23.0,88,30.06,0.8,Calm,Calm,-,0.01,Snow,Light Snow,0,2012-12-30 01:55:00
9:03 PM,26.6,23.0,86,30.03,0.5,Calm,Calm,-,0.01,Fog-Snow,Snow,0,2012-12-30 02:03:00
9:14 PM,26.6,24.8,93,30.04,0.5,Calm,Calm,-,0.03,Snow,Light Snow,0,2012-12-30 02:14:00
9:39 PM,26.6,24.8,93,30.04,0.5,East,4.6,-,0.04,Snow,Light Snow,100,2012-12-30 02:39:00
9:55 PM,28.0,26.1,92,30.07,1.0,East,3.5,-,0.05,Snow,Light Snow,100,2012-12-30 02:55:00
10:27 PM,28.4,26.6,93,30.06,0.5,Calm,Calm,-,0.02,Fog-Snow,Snow,0,2012-12-30 03:27:00
10:46 PM,28.4,26.6,93,30.07,1.0,Calm,Calm,-,0.03,Snow,Light Snow,0,2012-12-30 03:46:00
10:55 PM,28.0,25.0,88,30.10,1.0,Calm,Calm,-,0.04,Snow,Light Snow,0,2012-12-30 03:55:00
11:08 PM,28.4,26.6,93,30.08,5.0,Calm,Calm,-,0.00,,Overcast,0,2012-12-30 04:08:00
11:16 PM,28.4,26.6,93,30.08,7.0,Calm,Calm,-,0.00,,Overcast,0,2012-12-30 04:16:00
11:55 PM,28.0,25.0,88,30.12,7.0,Calm,Calm,-,0.00,,Overcast,0,2012-12-30 04:55:00